Pago Pago, Pago Pago International Airport (NSTU)

NamePago Pago International Airport
CityPago Pago
CountryAmerican Samoa
ICAONSTU
IATAPPG
Altitude10 m
CoordinatesGoogle Map
Live Air TrafficLiveATC.net
METARNSTU 191650Z 33012KT 12SM FEW020 SCT040 BKN100 28/24 A2974 RMK SLP069 T02840240
2020-01-19 16:50:00 Wind: Northwest (330°) 6.17 m/s - Visibility: 19312.08 m - Temperature: 28 °C - Dew point: 24 °C - Humidity: 78.9% - Pressure: 1007.11 hPa
Statistics

The table below shows the detailed information of all flights to/from Pago Pago, Pago Pago International Airport (NSTU).